Details From HCMH - EGAL INTL
To OMRK - RAS AL KHAIMAH INTL
Flight Number -
Tags decoded
Created
Modified
Stats Distance 1,342 nm / 2,486 km
Max Altitude 0 ft / 0 m
Waypoints 8
Social Downloads 0
Likes 0
Share VATSIM

Download

Looking for another format? Having issues loading an existing format? Contact us
Advertisement - Login to hide

Notes

Requested: HCMH HARGA EGROV RAPDO HAI NADNI RAV OMRK

Route

HCMH HARGA EGROV RAPDO HAI NADNI RAV OMRK

ID Type Via Altitude Latitude Longitude Leg Dist Tot Dist Heading (true) Name
O HCMH APT - 0 ft / 0 m 9.51817˚ 44.08876˚ - 0 nm - EGAL INTL
HARGA FIX - 0 ft / 0 m 9.52000˚ 44.09167˚ 0 nm 0 nm 57° / 57° -
EGROV FIX - 0 ft / 0 m 11.34528˚ 45.98250˚ 156 nm 156 nm 45° / 46° -
RAPDO FIX - 0 ft / 0 m 13.38806˚ 52.25889˚ 388 nm 544 nm 71° / 72° -
HAI VOR - 0 ft / 0 m 19.97031˚ 56.28084˚ 457 nm 1002 nm 30° / 31° HAIMA VOR-DME
NADNI FIX - 0 ft / 0 m 25.32083˚ 55.94972˚ 321 nm 1324 nm 357° / 357° -
RAV VOR - 0 ft / 0 m 25.58843˚ 55.94633˚ 16 nm 1340 nm 359° / 359° RAS AL KHAIMAH VOR-DME
O OMRK APT - 0 ft / 0 m 25.61335˚ 55.93883˚ 1 nm 1342 nm 345° / 345° RAS AL KHAIMAH INTL

Altitude Profile

Advertisement - Login to hide

Weather


0- 5 10 15 20 25 30 35+ Temperature / ° C

Clouds and Precipitation
Forecast for 2017-12-18 06:00 UTC. Updated 28 minutes ago

Ground ~20,000 ft ~40,000 ft Winds

HCMH

Details ICAO HCMH (HGA)
Name EGAL INTL
Region Somalia
Timezone Africa/Mogadishu (UTC+3.0)
Stats Elevation 4,423 ft / 1,348 m (AMSL)
Location 9.518166° 44.088758°
Runways 1
Magnetic Variation 1.454° E

METAR

HCMH 180500Z 33011KT 9999 FEW020 15/12 Q1023 NOSIG

Decode

TAF

Not found

Departure Runways

ID Width Length Bearing (true) Bearing (mag) Surface Threshold Offset Overrun Length
06 148 ft / 45 m 8,090 ft / 2,466 m 55.26° 53.81° Asphalt 0 ft / 0 m 0 ft / 0 m
24 148 ft / 45 m 8,090 ft / 2,466 m 235.26° 233.81° Asphalt 0 ft / 0 m 0 ft / 0 m

OMRK

Details ICAO OMRK (RKT)
Name RAS AL KHAIMAH INTL
Region United Arab Emirates
Timezone Asia/Dubai (UTC+4.0)
Stats Elevation 102 ft / 31 m (AMSL)
Location 25.613352° 55.938831°
Runways 1
Magnetic Variation 2.053° E

METAR

OMRK 180500Z 04003KT 9999 SCT035 21/13 Q1022 A3020

Decode

TAF

TAF AMD OMRK 180138Z 1801/1906 09009KT 9999 SCT040 PROB30 TEMPO 1802/1813 VRB20G30KT 3000 TSRA SCT040CB BECMG 1809/1811 35010KT BECMG 1815/1817 11005KT

Decode

Destination Runways

ID Width Length Bearing (true) Bearing (mag) Surface Threshold Offset Overrun Length
16 148 ft / 45 m 12,391 ft / 3,777 m 164.83° 162.78° Asphalt 0 ft / 0 m 165 ft / 50 m
34 148 ft / 45 m 12,391 ft / 3,777 m 344.84° 342.79° Asphalt 0 ft / 0 m 165 ft / 50 m

Popular Alternatives